sensor_id;sensor_type;location;lat;lon;timestamp;temperature;humidity
6788;DHT22;3431;47.966;10.268;2023-03-19T00:00:11;8.80;99.90
6788;DHT22;3431;47.966;10.268;2023-03-19T00:00:33;8.80;99.90
6788;DHT22;3431;47.966;10.268;2023-03-19T00:00:55;8.80;99.90
6788;DHT22;3431;47.966;10.268;2023-03-19T00:01:19;8.70;99.90
6788;DHT22;3431;47.966;10.268;2023-03-19T00:01:41;8.70;99.90
6788;DHT22;3431;47.966;10.268;2023-03-19T00:02:03;8.70;99.90
6788;DHT22;3431;47.966;10.268;2023-03-19T00:02:24;8.70;99.90
6788;DHT22;3431;47.966;10.268;2023-03-19T00:02:46;8.70;99.90
6788;DHT22;3431;47.966;10.268;2023-03-19T00:03:11;8.70;99.90
6788;DHT22;3431;47.966;10.268;2023-03-19T00:03:33;8.70;99.90
6788;DHT22;3431;47.966;10.268;2023-03-19T00:03:55;8.70;99.90
6788;DHT22;3431;47.966;10.268;2023-03-19T00:04:16;8.70;99.90
6788;DHT22;3431;47.966;10.268;2023-03-19T00:04:39;8.60;99.90
6788;DHT22;3431;47.966;10.268;2023-03-19T00:05:01;8.70;99.90
6788;DHT22;3431;47.966;10.268;2023-03-19T00:05:22;8.60;99.90
6788;DHT22;3431;47.966;10.268;2023-03-19T00:05:50;8.60;99.90
6788;DHT22;3431;47.966;10.268;2023-03-19T00:06:12;8.60;99.90
6788;DHT22;3431;47.966;10.268;2023-03-19T00:06:34;8.60;99.90
6788;DHT22;3431;47.966;10.268;2023-03-19T00:06:56;8.60;99.90
6788;DHT22;3431;47.966;10.268;2023-03-19T00:07:18;8.60;99.90
6788;DHT22;3431;47.966;10.268;2023-03-19T00:07:40;8.50;99.90
6788;DHT22;3431;47.966;10.268;2023-03-19T00:08:02;8.50;99.90
6788;DHT22;3431;47.966;10.268;2023-03-19T00:08:24;8.50;99.90
6788;DHT22;3431;47.966;10.268;2023-03-19T00:08:46;8.50;99.90
6788;DHT22;3431;47.966;10.268;2023-03-19T00:09:08;8.60;99.90
6788;DHT22;3431;47.966;10.268;2023-03-19T00:09:30;8.50;99.90
6788;DHT22;3431;47.966;10.268;2023-03-19T00:09:52;8.60;99.90
6788;DHT22;3431;47.966;10.268;2023-03-19T00:10:13;8.50;99.90
6788;DHT22;3431;47.966;10.268;2023-03-19T00:10:37;8.50;99.90
6788;DHT22;3431;47.966;10.268;2023-03-19T00:11:05;8.60;99.90
6788;DHT22;3431;47.966;10.268;2023-03-19T00:11:27;8.60;99.90
6788;DHT22;3431;47.966;10.268;2023-03-19T00:11:48;8.60;99.90
6788;DHT22;3431;47.966;10.268;2023-03-19T00:12:10;8.60;99.90
6788;DHT22;3431;47.966;10.268;2023-03-19T00:12:32;8.60;99.90
6788;DHT22;3431;47.966;10.268;2023-03-19T00:12:54;8.60;99.90
6788;DHT22;3431;47.966;10.268;2023-03-19T00:13:16;8.70;99.90
6788;DHT22;3431;47.966;10.268;2023-03-19T00:13:38;8.70;99.90
6788;DHT22;3431;47.966;10.268;2023-03-19T00:13:59;8.70;99.90
6788;DHT22;3431;47.966;10.268;2023-03-19T00:14:22;8.70;99.90
6788;DHT22;3431;47.966;10.268;2023-03-19T00:14:44;8.70;99.90
6788;DHT22;3431;47.966;10.268;2023-03-19T00:15:06;8.70;99.90
6788;DHT22;3431;47.966;10.268;2023-03-19T00:15:32;8.70;99.90
6788;DHT22;3431;47.966;10.268;2023-03-19T00:15:54;8.70;99.90
6788;DHT22;3431;47.966;10.268;2023-03-19T00:16:16;8.70;99.90
6788;DHT22;3431;47.966;10.268;2023-03-19T00:16:39;8.70;99.90
6788;DHT22;3431;47.966;10.268;2023-03-19T00:17:01;8.70;99.90
6788;DHT22;3431;47.966;10.268;2023-03-19T00:17:22;8.70;99.90
6788;DHT22;3431;47.966;10.268;2023-03-19T00:17:45;8.70;99.90
6788;DHT22;3431;47.966;10.268;2023-03-19T00:18:06;8.70;99.90
6788;DHT22;3431;47.966;10.268;2023-03-19T00:18:28;8.70;99.90
6788;DHT22;3431;47.966;10.268;2023-03-19T00:18:50;8.80;99.90
6788;DHT22;3431;47.966;10.268;2023-03-19T00:19:13;8.70;99.90
6788;DHT22;3431;47.966;10.268;2023-03-19T00:19:35;8.80;99.90
6788;DHT22;3431;47.966;10.268;2023-03-19T00:19:57;8.80;99.90
6788;DHT22;3431;47.966;10.268;2023-03-19T00:20:19;8.80;99.90
6788;DHT22;3431;47.966;10.268;2023-03-19T00:20:42;8.80;99.90
6788;DHT22;3431;47.966;10.268;2023-03-19T00:21:04;8.80;99.90
6788;DHT22;3431;47.966;10.268;2023-03-19T00:21:26;8.80;99.90
6788;DHT22;3431;47.966;10.268;2023-03-19T00:21:47;8.80;99.90
6788;DHT22;3431;47.966;10.268;2023-03-19T00:22:10;8.80;99.90
6788;DHT22;3431;47.966;10.268;2023-03-19T00:22:32;8.80;99.90
6788;DHT22;3431;47.966;10.268;2023-03-19T00:22:53;8.80;99.90
6788;DHT22;3431;47.966;10.268;2023-03-19T00:23:15;8.80;99.90
6788;DHT22;3431;47.966;10.268;2023-03-19T00:23:37;8.80;99.90
6788;DHT22;3431;47.966;10.268;2023-03-19T00:23:59;8.80;99.90
6788;DHT22;3431;47.966;10.268;2023-03-19T00:24:22;8.80;99.90
6788;DHT22;3431;47.966;10.268;2023-03-19T00:24:44;8.80;99.90
6788;DHT22;3431;47.966;10.268;2023-03-19T00:25:07;8.80;99.90
6788;DHT22;3431;47.966;10.268;2023-03-19T00:25:30;8.80;99.90
6788;DHT22;3431;47.966;10.268;2023-03-19T00:25:52;8.80;99.90
6788;DHT22;3431;47.966;10.268;2023-03-19T00:26:14;8.80;99.90
6788;DHT22;3431;47.966;10.268;2023-03-19T00:26:36;8.80;99.90
6788;DHT22;3431;47.966;10.268;2023-03-19T00:26:59;8.90;99.90
6788;DHT22;3431;47.966;10.268;2023-03-19T00:27:21;8.90;99.90
6788;DHT22;3431;47.966;10.268;2023-03-19T00:27:42;8.90;99.90
6788;DHT22;3431;47.966;10.268;2023-03-19T00:28:04;8.90;99.90
6788;DHT22;3431;47.966;10.268;2023-03-19T00:28:27;8.90;99.90
6788;DHT22;3431;47.966;10.268;2023-03-19T00:28:49;8.90;99.90
6788;DHT22;3431;47.966;10.268;2023-03-19T00:29:11;8.90;99.90
6788;DHT22;3431;47.966;10.268;2023-03-19T00:29:33;8.90;99.90
6788;DHT22;3431;47.966;10.268;2023-03-19T00:29:55;8.90;99.90
6788;DHT22;3431;47.966;10.268;2023-03-19T00:30:17;8.90;99.90
6788;DHT22;3431;47.966;10.268;2023-03-19T00:30:39;8.90;99.90
6788;DHT22;3431;47.966;10.268;2023-03-19T00:31:06;8.90;99.90
6788;DHT22;3431;47.966;10.268;2023-03-19T00:31:29;8.90;99.90
6788;DHT22;3431;47.966;10.268;2023-03-19T00:31:52;8.90;99.90
6788;DHT22;3431;47.966;10.268;2023-03-19T00:32:14;8.90;99.90
6788;DHT22;3431;47.966;10.268;2023-03-19T00:32:35;8.90;99.90
6788;DHT22;3431;47.966;10.268;2023-03-19T00:32:57;8.90;99.90
6788;DHT22;3431;47.966;10.268;2023-03-19T00:33:20;8.90;99.90
6788;DHT22;3431;47.966;10.268;2023-03-19T00:33:42;8.90;99.90
6788;DHT22;3431;47.966;10.268;2023-03-19T00:34:04;8.90;99.90
6788;DHT22;3431;47.966;10.268;2023-03-19T00:34:25;8.80;99.90
6788;DHT22;3431;47.966;10.268;2023-03-19T00:34:48;8.80;99.90
6788;DHT22;3431;47.966;10.268;2023-03-19T00:35:12;8.80;99.90
6788;DHT22;3431;47.966;10.268;2023-03-19T00:35:34;8.80;99.90
6788;DHT22;3431;47.966;10.268;2023-03-19T00:35:55;8.80;99.90
6788;DHT22;3431;47.966;10.268;2023-03-19T00:36:19;8.80;99.90
6788;DHT22;3431;47.966;10.268;2023-03-19T00:36:41;8.80;99.90
6788;DHT22;3431;47.966;10.268;2023-03-19T00:37:03;8.80;99.90
6788;DHT22;3431;47.966;10.268;2023-03-19T00:37:26;8.80;99.90
6788;DHT22;3431;47.966;10.268;2023-03-19T00:37:47;8.80;99.90
6788;DHT22;3431;47.966;10.268;2023-03-19T00:38:09;8.80;99.90
6788;DHT22;3431;47.966;10.268;2023-03-19T00:38:31;8.80;99.90
6788;DHT22;3431;47.966;10.268;2023-03-19T00:38:53;8.70;99.90
6788;DHT22;3431;47.966;10.268;2023-03-19T00:39:15;8.70;99.90
6788;DHT22;3431;47.966;10.268;2023-03-19T00:39:36;8.70;99.90
6788;DHT22;3431;47.966;10.268;2023-03-19T00:39:58;8.70;99.90
6788;DHT22;3431;47.966;10.268;2023-03-19T00:40:21;8.70;99.90
6788;DHT22;3431;47.966;10.268;2023-03-19T00:40:42;8.70;99.90
6788;DHT22;3431;47.966;10.268;2023-03-19T00:41:04;8.70;99.90
6788;DHT22;3431;47.966;10.268;2023-03-19T00:41:28;8.70;99.90
6788;DHT22;3431;47.966;10.268;2023-03-19T00:41:50;8.60;99.90
6788;DHT22;3431;47.966;10.268;2023-03-19T00:42:12;8.60;99.90
6788;DHT22;3431;47.966;10.268;2023-03-19T00:42:33;8.60;99.90
6788;DHT22;3431;47.966;10.268;2023-03-19T00:42:55;8.60;99.90
6788;DHT22;3431;47.966;10.268;2023-03-19T00:43:17;8.60;99.90
6788;DHT22;3431;47.966;10.268;2023-03-19T00:43:39;9.20;99.90
6788;DHT22;3431;47.966;10.268;2023-03-19T00:44:01;8.50;99.90
6788;DHT22;3431;47.966;10.268;2023-03-19T00:44:24;8.50;99.90
6788;DHT22;3431;47.966;10.268;2023-03-19T00:44:46;8.50;99.90
6788;DHT22;3431;47.966;10.268;2023-03-19T00:45:08;8.50;99.90
6788;DHT22;3431;47.966;10.268;2023-03-19T00:45:31;8.40;99.90
6788;DHT22;3431;47.966;10.268;2023-03-19T00:45:53;8.40;99.90
6788;DHT22;3431;47.966;10.268;2023-03-19T00:46:14;8.40;99.90
6788;DHT22;3431;47.966;10.268;2023-03-19T00:46:38;8.40;99.90
6788;DHT22;3431;47.966;10.268;2023-03-19T00:47:01;8.40;99.90
6788;DHT22;3431;47.966;10.268;2023-03-19T00:47:24;8.40;99.90
6788;DHT22;3431;47.966;10.268;2023-03-19T00:47:45;8.30;99.90
6788;DHT22;3431;47.966;10.268;2023-03-19T00:48:08;8.30;99.90
6788;DHT22;3431;47.966;10.268;2023-03-19T00:48:29;8.30;99.90
6788;DHT22;3431;47.966;10.268;2023-03-19T00:48:52;8.30;99.90
6788;DHT22;3431;47.966;10.268;2023-03-19T00:49:15;8.30;99.90
6788;DHT22;3431;47.966;10.268;2023-03-19T00:49:37;8.30;99.90
6788;DHT22;3431;47.966;10.268;2023-03-19T00:49:59;8.20;99.90
6788;DHT22;3431;47.966;10.268;2023-03-19T00:50:20;8.20;99.90
6788;DHT22;3431;47.966;10.268;2023-03-19T00:50:43;8.20;99.90
6788;DHT22;3431;47.966;10.268;2023-03-19T00:51:06;8.20;99.90
6788;DHT22;3431;47.966;10.268;2023-03-19T00:51:28;8.20;99.90
6788;DHT22;3431;47.966;10.268;2023-03-19T00:51:49;8.20;99.90
6788;DHT22;3431;47.966;10.268;2023-03-19T00:52:12;8.20;99.90
6788;DHT22;3431;47.966;10.268;2023-03-19T00:52:34;8.20;99.90
6788;DHT22;3431;47.966;10.268;2023-03-19T00:52:56;8.20;99.90
6788;DHT22;3431;47.966;10.268;2023-03-19T00:53:18;8.20;99.90
6788;DHT22;3431;47.966;10.268;2023-03-19T00:53:41;8.10;99.90
6788;DHT22;3431;47.966;10.268;2023-03-19T00:54:04;8.10;99.90
6788;DHT22;3431;47.966;10.268;2023-03-19T00:54:25;8.10;99.90
6788;DHT22;3431;47.966;10.268;2023-03-19T00:54:47;8.10;99.90
6788;DHT22;3431;47.966;10.268;2023-03-19T00:55:09;8.10;99.90
6788;DHT22;3431;47.966;10.268;2023-03-19T00:55:32;8.10;99.90
6788;DHT22;3431;47.966;10.268;2023-03-19T00:55:53;8.10;99.90
6788;DHT22;3431;47.966;10.268;2023-03-19T00:56:15;8.10;99.90
6788;DHT22;3431;47.966;10.268;2023-03-19T00:56:38;8.10;99.90
6788;DHT22;3431;47.966;10.268;2023-03-19T00:57:01;8.10;99.90
6788;DHT22;3431;47.966;10.268;2023-03-19T00:57:22;8.10;99.90
6788;DHT22;3431;47.966;10.268;2023-03-19T00:57:45;8.10;99.90
6788;DHT22;3431;47.966;10.268;2023-03-19T00:58:06;8.10;99.90
6788;DHT22;3431;47.966;10.268;2023-03-19T00:58:30;8.10;99.90
6788;DHT22;3431;47.966;10.268;2023-03-19T00:58:52;8.10;99.90
6788;DHT22;3431;47.966;10.268;2023-03-19T00:59:13;8.10;99.90
6788;DHT22;3431;47.966;10.268;2023-03-19T00:59:35;8.00;99.90
6788;DHT22;3431;47.966;10.268;2023-03-19T00:59:57;8.10;99.90
6788;DHT22;3431;47.966;10.268;2023-03-19T01:00:19;8.10;99.90
6788;DHT22;3431;47.966;10.268;2023-03-19T01:00:41;8.00;99.90
6788;DHT22;3431;47.966;10.268;2023-03-19T01:01:04;8.10;99.90
6788;DHT22;3431;47.966;10.268;2023-03-19T01:01:26;8.00;99.90
6788;DHT22;3431;47.966;10.268;2023-03-19T01:01:48;8.00;99.90
6788;DHT22;3431;47.966;10.268;2023-03-19T01:02:11;8.00;99.90
6788;DHT22;3431;47.966;10.268;2023-03-19T01:02:33;8.10;99.90
6788;DHT22;3431;47.966;10.268;2023-03-19T01:02:54;8.00;99.90
6788;DHT22;3431;47.966;10.268;2023-03-19T01:03:16;8.00;99.90
6788;DHT22;3431;47.966;10.268;2023-03-19T01:03:39;8.10;99.90
6788;DHT22;3431;47.966;10.268;2023-03-19T01:04:00;7.90;99.90
6788;DHT22;3431;47.966;10.268;2023-03-19T01:04:22;8.00;99.90
6788;DHT22;3431;47.966;10.268;2023-03-19T01:04:47;8.00;99.90
6788;DHT22;3431;47.966;10.268;2023-03-19T01:05:09;8.00;99.90
6788;DHT22;3431;47.966;10.268;2023-03-19T01:05:31;8.00;99.90
6788;DHT22;3431;47.966;10.268;2023-03-19T01:05:54;8.00;99.90
6788;DHT22;3431;47.966;10.268;2023-03-19T01:06:16;8.00;99.90
6788;DHT22;3431;47.966;10.268;2023-03-19T01:06:38;8.00;99.90
6788;DHT22;3431;47.966;10.268;2023-03-19T01:07:00;8.00;99.90
6788;DHT22;3431;47.966;10.268;2023-03-19T01:07:21;8.00;99.90
6788;DHT22;3431;47.966;10.268;2023-03-19T01:07:43;8.00;99.90
6788;DHT22;3431;47.966;10.268;2023-03-19T01:08:06;8.00;99.90
6788;DHT22;3431;47.966;10.268;2023-03-19T01:08:28;8.00;99.90
6788;DHT22;3431;47.966;10.268;2023-03-19T01:08:49;8.00;99.90
6788;DHT22;3431;47.966;10.268;2023-03-19T01:09:12;8.00;99.90
6788;DHT22;3431;47.966;10.268;2023-03-19T01:09:35;8.00;99.90
6788;DHT22;3431;47.966;10.268;2023-03-19T01:09:57;8.00;99.90
6788;DHT22;3431;47.966;10.268;2023-03-19T01:10:19;8.00;99.90
6788;DHT22;3431;47.966;10.268;2023-03-19T01:10:42;8.00;99.90
6788;DHT22;3431;47.966;10.268;2023-03-19T01:11:06;7.90;99.90
6788;DHT22;3431;47.966;10.268;2023-03-19T01:11:28;7.90;99.90
6788;DHT22;3431;47.966;10.268;2023-03-19T01:11:50;7.90;99.90
6788;DHT22;3431;47.966;10.268;2023-03-19T01:12:12;7.90;99.90
6788;DHT22;3431;47.966;10.268;2023-03-19T01:12:34;7.90;99.90
6788;DHT22;3431;47.966;10.268;2023-03-19T01:12:56;7.90;99.90
6788;DHT22;3431;47.966;10.268;2023-03-19T01:13:18;7.90;99.90
6788;DHT22;3431;47.966;10.268;2023-03-19T01:13:40;7.90;99.90
6788;DHT22;3431;47.966;10.268;2023-03-19T01:14:02;7.90;99.90
6788;DHT22;3431;47.966;10.268;2023-03-19T01:14:25;7.90;99.90
6788;DHT22;3431;47.966;10.268;2023-03-19T01:14:47;7.90;99.90
6788;DHT22;3431;47.966;10.268;2023-03-19T01:15:09;7.80;99.90
6788;DHT22;3431;47.966;10.268;2023-03-19T01:15:33;7.80;99.90
6788;DHT22;3431;47.966;10.268;2023-03-19T01:15:56;7.80;99.90
6788;DHT22;3431;47.966;10.268;2023-03-19T01:16:17;7.80;99.90
6788;DHT22;3431;47.966;10.268;2023-03-19T01:16:39;7.80;99.90
6788;DHT22;3431;47.966;10.268;2023-03-19T01:17:00;7.80;99.90
6788;DHT22;3431;47.966;10.268;2023-03-19T01:17:24;7.80;99.90
6788;DHT22;3431;47.966;10.268;2023-03-19T01:17:46;7.80;99.90
6788;DHT22;3431;47.966;10.268;2023-03-19T01:18:08;7.80;99.90
6788;DHT22;3431;47.966;10.268;2023-03-19T01:18:30;7.80;99.90
6788;DHT22;3431;47.966;10.268;2023-03-19T01:18:52;7.80;99.90
6788;DHT22;3431;47.966;10.268;2023-03-19T01:19:14;7.80;99.90
6788;DHT22;3431;47.966;10.268;2023-03-19T01:19:36;7.80;99.90
6788;DHT22;3431;47.966;10.268;2023-03-19T01:19:58;7.80;99.90
6788;DHT22;3431;47.966;10.268;2023-03-19T01:20:20;7.80;99.90
6788;DHT22;3431;47.966;10.268;2023-03-19T01:20:44;7.80;99.90
6788;DHT22;3431;47.966;10.268;2023-03-19T01:21:07;7.80;99.90
6788;DHT22;3431;47.966;10.268;2023-03-19T01:21:32;7.80;99.90
6788;DHT22;3431;47.966;10.268;2023-03-19T01:21:56;7.80;99.90
6788;DHT22;3431;47.966;10.268;2023-03-19T01:22:19;7.80;99.90
6788;DHT22;3431;47.966;10.268;2023-03-19T01:22:50;7.80;99.90
6788;DHT22;3431;47.966;10.268;2023-03-19T01:23:12;7.80;99.90
6788;DHT22;3431;47.966;10.268;2023-03-19T01:23:34;7.80;99.90
6788;DHT22;3431;47.966;10.268;2023-03-19T01:23:56;7.80;99.90
6788;DHT22;3431;47.966;10.268;2023-03-19T01:24:19;7.80;99.90
6788;DHT22;3431;47.966;10.268;2023-03-19T01:24:46;7.80;99.90
6788;DHT22;3431;47.966;10.268;2023-03-19T01:25:09;7.90;99.90
6788;DHT22;3431;47.966;10.268;2023-03-19T01:25:33;7.80;99.90
6788;DHT22;3431;47.966;10.268;2023-03-19T01:25:59;7.80;99.90
6788;DHT22;3431;47.966;10.268;2023-03-19T01:26:23;7.80;99.90
6788;DHT22;3431;47.966;10.268;2023-03-19T01:26:49;7.80;99.90
6788;DHT22;3431;47.966;10.268;2023-03-19T01:27:19;7.80;99.90
6788;DHT22;3431;47.966;10.268;2023-03-19T01:27:41;7.80;99.90
6788;DHT22;3431;47.966;10.268;2023-03-19T01:28:05;7.80;99.90
6788;DHT22;3431;47.966;10.268;2023-03-19T01:28:29;7.80;99.90
6788;DHT22;3431;47.966;10.268;2023-03-19T01:28:51;7.80;99.90
6788;DHT22;3431;47.966;10.268;2023-03-19T01:29:14;7.80;99.90
6788;DHT22;3431;47.966;10.268;2023-03-19T01:29:37;7.70;99.90
6788;DHT22;3431;47.966;10.268;2023-03-19T01:30:14;7.70;99.90
6788;DHT22;3431;47.966;10.268;2023-03-19T01:30:58;7.70;99.90
6788;DHT22;3431;47.966;10.268;2023-03-19T01:31:39;7.70;99.90
6788;DHT22;3431;47.966;10.268;2023-03-19T01:32:16;7.70;99.90
6788;DHT22;3431;47.966;10.268;2023-03-19T01:32:50;7.80;99.90
6788;DHT22;3431;47.966;10.268;2023-03-19T01:33:24;7.70;99.90
6788;DHT22;3431;47.966;10.268;2023-03-19T01:33:51;7.70;99.90
6788;DHT22;3431;47.966;10.268;2023-03-19T01:34:34;7.70;99.90
6788;DHT22;3431;47.966;10.268;2023-03-19T01:35:03;7.80;99.90
6788;DHT22;3431;47.966;10.268;2023-03-19T01:35:25;7.80;99.90
6788;DHT22;3431;47.966;10.268;2023-03-19T01:35:46;7.70;99.90
6788;DHT22;3431;47.966;10.268;2023-03-19T01:36:09;7.80;99.90
6788;DHT22;3431;47.966;10.268;2023-03-19T01:36:44;7.70;99.90
6788;DHT22;3431;47.966;10.268;2023-03-19T01:37:10;7.80;99.90
6788;DHT22;3431;47.966;10.268;2023-03-19T01:37:34;7.80;99.90
6788;DHT22;3431;47.966;10.268;2023-03-19T01:37:57;7.80;99.90
6788;DHT22;3431;47.966;10.268;2023-03-19T01:38:18;7.80;99.90
6788;DHT22;3431;47.966;10.268;2023-03-19T01:38:40;7.80;99.90
6788;DHT22;3431;47.966;10.268;2023-03-19T01:39:08;7.80;99.90
6788;DHT22;3431;47.966;10.268;2023-03-19T01:39:32;7.80;99.90
6788;DHT22;3431;47.966;10.268;2023-03-19T01:39:54;7.80;99.90
6788;DHT22;3431;47.966;10.268;2023-03-19T01:40:16;7.80;99.90
6788;DHT22;3431;47.966;10.268;2023-03-19T01:40:43;7.80;99.90
6788;DHT22;3431;47.966;10.268;2023-03-19T01:41:05;7.80;99.90
6788;DHT22;3431;47.966;10.268;2023-03-19T01:41:28;7.90;99.90
6788;DHT22;3431;47.966;10.268;2023-03-19T01:42:00;7.90;99.90
6788;DHT22;3431;47.966;10.268;2023-03-19T01:42:51;7.90;99.90
6788;DHT22;3431;47.966;10.268;2023-03-19T01:43:34;7.90;99.90
6788;DHT22;3431;47.966;10.268;2023-03-19T01:44:25;8.00;99.90
6788;DHT22;3431;47.966;10.268;2023-03-19T01:45:29;8.00;99.90
6788;DHT22;3431;47.966;10.268;2023-03-19T01:46:21;8.00;99.90
6788;DHT22;3431;47.966;10.268;2023-03-19T01:47:13;8.10;99.90
6788;DHT22;3431;47.966;10.268;2023-03-19T01:47:57;8.10;99.90
6788;DHT22;3431;47.966;10.268;2023-03-19T01:48:37;8.20;99.90
6788;DHT22;3431;47.966;10.268;2023-03-19T01:49:05;8.20;99.90
6788;DHT22;3431;47.966;10.268;2023-03-19T01:49:28;8.10;99.90
6788;DHT22;3431;47.966;10.268;2023-03-19T01:50:25;8.20;99.90
6788;DHT22;3431;47.966;10.268;2023-03-19T01:51:13;8.20;99.90
6788;DHT22;3431;47.966;10.268;2023-03-19T01:51:44;8.30;99.90
6788;DHT22;3431;47.966;10.268;2023-03-19T01:52:18;8.30;99.90
6788;DHT22;3431;47.966;10.268;2023-03-19T01:52:52;8.30;99.90
6788;DHT22;3431;47.966;10.268;2023-03-19T01:53:38;8.30;99.90
6788;DHT22;3431;47.966;10.268;2023-03-19T01:54:14;8.30;99.90
6788;DHT22;3431;47.966;10.268;2023-03-19T01:55:04;8.30;99.90
6788;DHT22;3431;47.966;10.268;2023-03-19T01:56:10;8.30;99.90
6788;DHT22;3431;47.966;10.268;2023-03-19T01:56:51;8.30;99.90
6788;DHT22;3431;47.966;10.268;2023-03-19T01:57:33;8.40;99.90
6788;DHT22;3431;47.966;10.268;2023-03-19T01:58:11;8.40;99.90
6788;DHT22;3431;47.966;10.268;2023-03-19T01:59:10;8.40;99.90
6788;DHT22;3431;47.966;10.268;2023-03-19T01:59:53;8.40;99.90
6788;DHT22;3431;47.966;10.268;2023-03-19T02:00:35;8.40;99.90
6788;DHT22;3431;47.966;10.268;2023-03-19T02:00:58;8.40;99.90
6788;DHT22;3431;47.966;10.268;2023-03-19T02:01:20;8.40;99.90
6788;DHT22;3431;47.966;10.268;2023-03-19T02:01:51;8.40;99.90
6788;DHT22;3431;47.966;10.268;2023-03-19T02:02:18;8.40;99.90
6788;DHT22;3431;47.966;10.268;2023-03-19T02:02:42;8.40;99.90
6788;DHT22;3431;47.966;10.268;2023-03-19T02:03:29;8.40;99.90
6788;DHT22;3431;47.966;10.268;2023-03-19T02:04:11;8.40;99.90
6788;DHT22;3431;47.966;10.268;2023-03-19T02:04:34;8.40;99.90
6788;DHT22;3431;47.966;10.268;2023-03-19T02:05:02;8.40;99.90
6788;DHT22;3431;47.966;10.268;2023-03-19T02:05:25;8.40;99.90
6788;DHT22;3431;47.966;10.268;2023-03-19T02:05:55;8.40;99.90
6788;DHT22;3431;47.966;10.268;2023-03-19T02:06:19;8.40;99.90
6788;DHT22;3431;47.966;10.268;2023-03-19T02:06:41;8.40;99.90
6788;DHT22;3431;47.966;10.268;2023-03-19T02:07:05;8.40;99.90
6788;DHT22;3431;47.966;10.268;2023-03-19T02:07:29;8.40;99.90
6788;DHT22;3431;47.966;10.268;2023-03-19T02:07:54;8.40;99.90
6788;DHT22;3431;47.966;10.268;2023-03-19T02:08:18;8.40;99.90
6788;DHT22;3431;47.966;10.268;2023-03-19T02:08:44;8.40;99.90
6788;DHT22;3431;47.966;10.268;2023-03-19T02:09:07;8.40;99.90
6788;DHT22;3431;47.966;10.268;2023-03-19T02:09:30;8.40;99.90
6788;DHT22;3431;47.966;10.268;2023-03-19T02:09:52;8.50;99.90
6788;DHT22;3431;47.966;10.268;2023-03-19T02:10:16;8.50;99.90
6788;DHT22;3431;47.966;10.268;2023-03-19T02:10:39;8.50;99.90
6788;DHT22;3431;47.966;10.268;2023-03-19T02:11:01;8.50;99.90
6788;DHT22;3431;47.966;10.268;2023-03-19T02:11:23;8.50;99.90
6788;DHT22;3431;47.966;10.268;2023-03-19T02:11:47;8.60;99.90
6788;DHT22;3431;47.966;10.268;2023-03-19T02:12:10;8.50;99.90
6788;DHT22;3431;47.966;10.268;2023-03-19T02:12:33;8.60;99.90
6788;DHT22;3431;47.966;10.268;2023-03-19T02:12:54;8.60;99.90
6788;DHT22;3431;47.966;10.268;2023-03-19T02:13:17;8.60;99.90
6788;DHT22;3431;47.966;10.268;2023-03-19T02:13:38;8.60;99.90
6788;DHT22;3431;47.966;10.268;2023-03-19T02:14:00;8.60;99.90
6788;DHT22;3431;47.966;10.268;2023-03-19T02:14:21;8.60;99.90
6788;DHT22;3431;47.966;10.268;2023-03-19T02:14:45;8.60;99.90
6788;DHT22;3431;47.966;10.268;2023-03-19T02:15:07;8.60;99.90
6788;DHT22;3431;47.966;10.268;2023-03-19T02:15:29;8.60;99.90
6788;DHT22;3431;47.966;10.268;2023-03-19T02:15:51;8.60;99.90
6788;DHT22;3431;47.966;10.268;2023-03-19T02:16:14;8.60;99.90
6788;DHT22;3431;47.966;10.268;2023-03-19T02:16:36;8.60;99.90
6788;DHT22;3431;47.966;10.268;2023-03-19T02:16:58;8.60;99.90
6788;DHT22;3431;47.966;10.268;2023-03-19T02:17:20;8.60;99.90
6788;DHT22;3431;47.966;10.268;2023-03-19T02:17:42;8.60;99.90
6788;DHT22;3431;47.966;10.268;2023-03-19T02:18:06;8.60;99.90
6788;DHT22;3431;47.966;10.268;2023-03-19T02:18:29;8.60;99.90
6788;DHT22;3431;47.966;10.268;2023-03-19T02:18:53;8.70;99.90
6788;DHT22;3431;47.966;10.268;2023-03-19T02:19:21;8.70;99.90
6788;DHT22;3431;47.966;10.268;2023-03-19T02:19:47;8.60;99.90
6788;DHT22;3431;47.966;10.268;2023-03-19T02:20:13;8.70;99.90
6788;DHT22;3431;47.966;10.268;2023-03-19T02:20:43;8.70;99.90
6788;DHT22;3431;47.966;10.268;2023-03-19T02:21:13;8.70;99.90
6788;DHT22;3431;47.966;10.268;2023-03-19T02:21:35;8.70;99.90
6788;DHT22;3431;47.966;10.268;2023-03-19T02:21:58;8.70;99.90
6788;DHT22;3431;47.966;10.268;2023-03-19T02:22:24;8.70;99.90
6788;DHT22;3431;47.966;10.268;2023-03-19T02:22:54;8.70;99.90
6788;DHT22;3431;47.966;10.268;2023-03-19T02:23:25;8.70;99.90
6788;DHT22;3431;47.966;10.268;2023-03-19T02:24:02;8.70;99.90
6788;DHT22;3431;47.966;10.268;2023-03-19T02:24:53;8.70;99.90
6788;DHT22;3431;47.966;10.268;2023-03-19T02:25:23;8.70;99.90
6788;DHT22;3431;47.966;10.268;2023-03-19T02:26:01;8.70;99.90
6788;DHT22;3431;47.966;10.268;2023-03-19T02:26:25;8.70;99.90
6788;DHT22;3431;47.966;10.268;2023-03-19T02:26:55;8.70;99.90
6788;DHT22;3431;47.966;10.268;2023-03-19T02:27:18;8.60;99.90
6788;DHT22;3431;47.966;10.268;2023-03-19T02:27:42;8.60;99.90
6788;DHT22;3431;47.966;10.268;2023-03-19T02:28:04;8.60;99.90
6788;DHT22;3431;47.966;10.268;2023-03-19T02:28:31;8.60;99.90
6788;DHT22;3431;47.966;10.268;2023-03-19T02:28:53;8.70;99.90
6788;DHT22;3431;47.966;10.268;2023-03-19T02:29:23;8.60;99.90
6788;DHT22;3431;47.966;10.268;2023-03-19T02:29:46;8.70;99.90
6788;DHT22;3431;47.966;10.268;2023-03-19T02:30:19;8.60;99.90
6788;DHT22;3431;47.966;10.268;2023-03-19T02:30:42;8.60;99.90
6788;DHT22;3431;47.966;10.268;2023-03-19T02:31:06;8.60;99.90
6788;DHT22;3431;47.966;10.268;2023-03-19T02:31:28;8.60;99.90
6788;DHT22;3431;47.966;10.268;2023-03-19T02:31:50;8.60;99.90
6788;DHT22;3431;47.966;10.268;2023-03-19T02:32:12;8.60;99.90
6788;DHT22;3431;47.966;10.268;2023-03-19T02:32:33;8.60;99.90
6788;DHT22;3431;47.966;10.268;2023-03-19T02:32:55;8.60;99.90
6788;DHT22;3431;47.966;10.268;2023-03-19T02:33:18;8.60;99.90
6788;DHT22;3431;47.966;10.268;2023-03-19T02:33:40;8.50;99.90
6788;DHT22;3431;47.966;10.268;2023-03-19T02:34:03;8.50;99.90
6788;DHT22;3431;47.966;10.268;2023-03-19T02:34:34;8.50;99.90
6788;DHT22;3431;47.966;10.268;2023-03-19T02:34:57;8.50;99.90
6788;DHT22;3431;47.966;10.268;2023-03-19T02:35:18;8.50;99.90
6788;DHT22;3431;47.966;10.268;2023-03-19T02:35:41;8.50;99.90
6788;DHT22;3431;47.966;10.268;2023-03-19T02:36:08;8.50;99.90
6788;DHT22;3431;47.966;10.268;2023-03-19T02:36:33;8.40;99.90
6788;DHT22;3431;47.966;10.268;2023-03-19T02:37:02;8.40;99.90
6788;DHT22;3431;47.966;10.268;2023-03-19T02:37:26;8.40;99.90
6788;DHT22;3431;47.966;10.268;2023-03-19T02:37:50;8.40;99.90
6788;DHT22;3431;47.966;10.268;2023-03-19T02:38:13;8.40;99.90
6788;DHT22;3431;47.966;10.268;2023-03-19T02:38:35;8.40;99.90
6788;DHT22;3431;47.966;10.268;2023-03-19T02:39:00;8.30;99.90
6788;DHT22;3431;47.966;10.268;2023-03-19T02:39:27;8.30;99.90
6788;DHT22;3431;47.966;10.268;2023-03-19T02:39:54;8.30;99.90
6788;DHT22;3431;47.966;10.268;2023-03-19T02:40:21;8.30;99.90
6788;DHT22;3431;47.966;10.268;2023-03-19T02:40:47;8.30;99.90
6788;DHT22;3431;47.966;10.268;2023-03-19T02:41:12;8.30;99.90
6788;DHT22;3431;47.966;10.268;2023-03-19T02:41:36;8.30;99.90
6788;DHT22;3431;47.966;10.268;2023-03-19T02:41:59;8.30;99.90
6788;DHT22;3431;47.966;10.268;2023-03-19T02:42:27;8.30;99.90
6788;DHT22;3431;47.966;10.268;2023-03-19T02:42:51;8.20;99.90
6788;DHT22;3431;47.966;10.268;2023-03-19T02:43:13;8.20;99.90